sensor_id;sensor_type;location;lat;lon;timestamp;temperature;humidity
22202;DHT22;11266;51.522;6.302;2023-03-01T15:36:56;8.50;99.90
22202;DHT22;11266;51.522;6.302;2023-03-01T15:38:54;8.50;99.90
22202;DHT22;11266;51.522;6.302;2023-03-01T15:39:47;8.50;99.90
22202;DHT22;11266;51.522;6.302;2023-03-01T15:40:49;8.50;99.90
22202;DHT22;11266;51.522;6.302;2023-03-01T15:41:47;8.40;99.90
22202;DHT22;11266;51.522;6.302;2023-03-01T15:43:44;8.30;99.90
22202;DHT22;11266;51.522;6.302;2023-03-01T15:44:35;8.30;99.90
22202;DHT22;11266;51.522;6.302;2023-03-01T15:45:26;8.20;99.90
22202;DHT22;11266;51.522;6.302;2023-03-01T15:46:17;8.20;99.90
22202;DHT22;11266;51.522;6.302;2023-03-01T15:47:30;8.20;99.90
22202;DHT22;11266;51.522;6.302;2023-03-01T15:48:18;8.30;99.90
22202;DHT22;11266;51.522;6.302;2023-03-01T15:50:29;8.30;99.90
22202;DHT22;11266;51.522;6.302;2023-03-01T15:51:16;8.30;99.90
22202;DHT22;11266;51.522;6.302;2023-03-01T15:52:02;8.30;99.90
22202;DHT22;11266;51.522;6.302;2023-03-01T15:52:49;8.30;99.90
22202;DHT22;11266;51.522;6.302;2023-03-01T15:53:35;8.30;99.90
22202;DHT22;11266;51.522;6.302;2023-03-01T15:54:23;8.20;99.90
22202;DHT22;11266;51.522;6.302;2023-03-01T15:55:24;8.30;99.90
22202;DHT22;11266;51.522;6.302;2023-03-01T15:56:11;8.30;99.90
22202;DHT22;11266;51.522;6.302;2023-03-01T15:56:57;8.20;99.90
22202;DHT22;11266;51.522;6.302;2023-03-01T15:57:42;8.30;99.90
22202;DHT22;11266;51.522;6.302;2023-03-01T15:58:28;8.30;99.90
22202;DHT22;11266;51.522;6.302;2023-03-01T15:59:14;8.30;99.90
22202;DHT22;11266;51.522;6.302;2023-03-01T16:00:00;8.30;99.90
22202;DHT22;11266;51.522;6.302;2023-03-01T16:00:47;8.20;99.90
22202;DHT22;11266;51.522;6.302;2023-03-01T16:01:33;8.30;99.90
22202;DHT22;11266;51.522;6.302;2023-03-01T16:02:21;8.30;99.90
22202;DHT22;11266;51.522;6.302;2023-03-01T16:03:07;8.30;99.90
22202;DHT22;11266;51.522;6.302;2023-03-01T16:03:56;8.30;99.90
22202;DHT22;11266;51.522;6.302;2023-03-01T16:04:43;8.30;99.90
22202;DHT22;11266;51.522;6.302;2023-03-01T16:05:31;8.20;99.90
22202;DHT22;11266;51.522;6.302;2023-03-01T16:06:20;8.10;99.90
22202;DHT22;11266;51.522;6.302;2023-03-01T16:07:06;8.00;99.90
22202;DHT22;11266;51.522;6.302;2023-03-01T16:07:53;8.10;99.90
22202;DHT22;11266;51.522;6.302;2023-03-01T16:08:39;8.00;99.90
22202;DHT22;11266;51.522;6.302;2023-03-01T16:09:25;8.00;99.90
22202;DHT22;11266;51.522;6.302;2023-03-01T16:10:11;8.10;99.90
22202;DHT22;11266;51.522;6.302;2023-03-01T16:10:57;8.00;99.90
22202;DHT22;11266;51.522;6.302;2023-03-01T16:11:43;8.00;99.90
22202;DHT22;11266;51.522;6.302;2023-03-01T16:12:29;8.10;99.90
22202;DHT22;11266;51.522;6.302;2023-03-01T16:13:14;8.10;99.90
22202;DHT22;11266;51.522;6.302;2023-03-01T16:14:00;8.10;99.90
22202;DHT22;11266;51.522;6.302;2023-03-01T16:14:46;8.10;99.90
22202;DHT22;11266;51.522;6.302;2023-03-01T16:15:33;8.00;99.90
22202;DHT22;11266;51.522;6.302;2023-03-01T16:16:20;8.00;99.90
22202;DHT22;11266;51.522;6.302;2023-03-01T16:17:06;8.00;99.90
22202;DHT22;11266;51.522;6.302;2023-03-01T16:17:55;8.00;99.90
22202;DHT22;11266;51.522;6.302;2023-03-01T16:18:45;7.90;99.90
22202;DHT22;11266;51.522;6.302;2023-03-01T16:19:31;7.80;99.90
22202;DHT22;11266;51.522;6.302;2023-03-01T16:20:16;7.80;99.90
22202;DHT22;11266;51.522;6.302;2023-03-01T16:21:02;7.80;99.90
22202;DHT22;11266;51.522;6.302;2023-03-01T16:21:48;7.80;99.90
22202;DHT22;11266;51.522;6.302;2023-03-01T16:22:35;7.80;99.90
22202;DHT22;11266;51.522;6.302;2023-03-01T16:23:20;7.80;99.90
22202;DHT22;11266;51.522;6.302;2023-03-01T16:24:10;7.90;99.90
22202;DHT22;11266;51.522;6.302;2023-03-01T16:24:55;7.90;99.90
22202;DHT22;11266;51.522;6.302;2023-03-01T16:25:41;7.80;99.90
22202;DHT22;11266;51.522;6.302;2023-03-01T16:26:27;7.70;99.90
22202;DHT22;11266;51.522;6.302;2023-03-01T16:27:12;7.70;99.90
22202;DHT22;11266;51.522;6.302;2023-03-01T16:28:01;7.60;99.90
22202;DHT22;11266;51.522;6.302;2023-03-01T16:28:50;7.60;99.90
22202;DHT22;11266;51.522;6.302;2023-03-01T16:29:42;7.60;99.90
22202;DHT22;11266;51.522;6.302;2023-03-01T16:30:27;7.60;99.90
22202;DHT22;11266;51.522;6.302;2023-03-01T16:31:17;7.50;99.90
22202;DHT22;11266;51.522;6.302;2023-03-01T16:32:03;7.40;99.90
22202;DHT22;11266;51.522;6.302;2023-03-01T16:32:50;7.40;99.90
22202;DHT22;11266;51.522;6.302;2023-03-01T16:33:36;7.40;99.90
22202;DHT22;11266;51.522;6.302;2023-03-01T16:34:21;7.40;99.90
22202;DHT22;11266;51.522;6.302;2023-03-01T16:35:10;7.40;99.90
22202;DHT22;11266;51.522;6.302;2023-03-01T16:35:56;7.50;99.90
22202;DHT22;11266;51.522;6.302;2023-03-01T16:36:43;7.50;99.90
22202;DHT22;11266;51.522;6.302;2023-03-01T16:37:33;7.50;99.90
22202;DHT22;11266;51.522;6.302;2023-03-01T16:38:18;7.40;99.90
22202;DHT22;11266;51.522;6.302;2023-03-01T16:39:07;7.40;99.90
22202;DHT22;11266;51.522;6.302;2023-03-01T16:39:52;7.30;99.90
22202;DHT22;11266;51.522;6.302;2023-03-01T16:40:38;7.30;99.90
22202;DHT22;11266;51.522;6.302;2023-03-01T16:41:24;7.20;99.90
22202;DHT22;11266;51.522;6.302;2023-03-01T16:42:09;7.30;99.90
22202;DHT22;11266;51.522;6.302;2023-03-01T16:42:56;7.20;99.90
22202;DHT22;11266;51.522;6.302;2023-03-01T16:43:44;7.20;99.90
22202;DHT22;11266;51.522;6.302;2023-03-01T16:44:31;7.20;99.90
22202;DHT22;11266;51.522;6.302;2023-03-01T16:45:18;7.20;99.90
22202;DHT22;11266;51.522;6.302;2023-03-01T16:46:18;7.10;99.90
22202;DHT22;11266;51.522;6.302;2023-03-01T16:47:04;7.10;99.90
22202;DHT22;11266;51.522;6.302;2023-03-01T16:47:50;7.10;99.90
22202;DHT22;11266;51.522;6.302;2023-03-01T16:48:37;7.00;99.90
22202;DHT22;11266;51.522;6.302;2023-03-01T16:49:24;7.00;99.90
22202;DHT22;11266;51.522;6.302;2023-03-01T16:50:10;7.00;99.90
22202;DHT22;11266;51.522;6.302;2023-03-01T16:51:01;6.90;99.90
22202;DHT22;11266;51.522;6.302;2023-03-01T16:51:47;6.80;99.90
22202;DHT22;11266;51.522;6.302;2023-03-01T16:52:33;6.80;99.90
22202;DHT22;11266;51.522;6.302;2023-03-01T16:53:19;6.80;99.90
22202;DHT22;11266;51.522;6.302;2023-03-01T16:54:05;6.70;99.90
22202;DHT22;11266;51.522;6.302;2023-03-01T16:54:50;6.80;99.90
22202;DHT22;11266;51.522;6.302;2023-03-01T16:55:36;6.70;99.90
22202;DHT22;11266;51.522;6.302;2023-03-01T16:56:23;6.70;99.90
22202;DHT22;11266;51.522;6.302;2023-03-01T16:57:08;6.80;99.90
22202;DHT22;11266;51.522;6.302;2023-03-01T16:57:54;6.70;99.90
22202;DHT22;11266;51.522;6.302;2023-03-01T16:58:40;6.70;99.90
22202;DHT22;11266;51.522;6.302;2023-03-01T16:59:26;6.60;99.90
22202;DHT22;11266;51.522;6.302;2023-03-01T17:00:13;6.60;99.90
22202;DHT22;11266;51.522;6.302;2023-03-01T17:01:10;6.60;99.90
22202;DHT22;11266;51.522;6.302;2023-03-01T17:01:56;6.50;99.90
22202;DHT22;11266;51.522;6.302;2023-03-01T17:02:42;6.50;99.90
22202;DHT22;11266;51.522;6.302;2023-03-01T17:03:27;6.50;99.90
22202;DHT22;11266;51.522;6.302;2023-03-01T17:04:13;6.50;99.90
22202;DHT22;11266;51.522;6.302;2023-03-01T17:04:59;6.50;99.90
22202;DHT22;11266;51.522;6.302;2023-03-01T17:05:45;6.50;99.90
22202;DHT22;11266;51.522;6.302;2023-03-01T17:06:31;6.40;99.90
22202;DHT22;11266;51.522;6.302;2023-03-01T17:07:17;6.40;99.90
22202;DHT22;11266;51.522;6.302;2023-03-01T17:08:03;6.40;99.90
22202;DHT22;11266;51.522;6.302;2023-03-01T17:08:51;6.30;99.90
22202;DHT22;11266;51.522;6.302;2023-03-01T17:09:37;6.30;99.90
22202;DHT22;11266;51.522;6.302;2023-03-01T17:10:23;6.20;99.90
22202;DHT22;11266;51.522;6.302;2023-03-01T17:11:14;6.30;99.90
22202;DHT22;11266;51.522;6.302;2023-03-01T17:12:01;6.30;99.90
22202;DHT22;11266;51.522;6.302;2023-03-01T17:12:50;6.30;99.90
22202;DHT22;11266;51.522;6.302;2023-03-01T17:13:37;6.20;99.90
22202;DHT22;11266;51.522;6.302;2023-03-01T17:14:23;6.20;99.90
22202;DHT22;11266;51.522;6.302;2023-03-01T17:15:09;6.20;99.90
22202;DHT22;11266;51.522;6.302;2023-03-01T17:15:55;6.10;99.90
22202;DHT22;11266;51.522;6.302;2023-03-01T17:16:40;6.10;99.90
22202;DHT22;11266;51.522;6.302;2023-03-01T17:17:26;6.10;99.90
22202;DHT22;11266;51.522;6.302;2023-03-01T17:18:12;6.10;99.90
22202;DHT22;11266;51.522;6.302;2023-03-01T17:18:59;6.00;99.90
22202;DHT22;11266;51.522;6.302;2023-03-01T17:19:45;6.00;99.90
22202;DHT22;11266;51.522;6.302;2023-03-01T17:20:30;6.00;99.90
22202;DHT22;11266;51.522;6.302;2023-03-01T17:21:16;6.00;99.90
22202;DHT22;11266;51.522;6.302;2023-03-01T17:22:02;6.00;99.90
22202;DHT22;11266;51.522;6.302;2023-03-01T17:22:50;5.90;99.90
22202;DHT22;11266;51.522;6.302;2023-03-01T17:23:40;5.90;99.90
22202;DHT22;11266;51.522;6.302;2023-03-01T17:24:32;5.80;99.90
22202;DHT22;11266;51.522;6.302;2023-03-01T17:25:18;5.70;99.90
22202;DHT22;11266;51.522;6.302;2023-03-01T17:26:04;5.80;99.90
22202;DHT22;11266;51.522;6.302;2023-03-01T17:26:50;5.70;99.90
22202;DHT22;11266;51.522;6.302;2023-03-01T17:27:37;5.70;99.90
22202;DHT22;11266;51.522;6.302;2023-03-01T17:28:25;5.70;99.90
22202;DHT22;11266;51.522;6.302;2023-03-01T17:29:11;5.60;99.90
22202;DHT22;11266;51.522;6.302;2023-03-01T17:29:58;5.60;99.90
22202;DHT22;11266;51.522;6.302;2023-03-01T17:30:44;5.60;99.90
22202;DHT22;11266;51.522;6.302;2023-03-01T17:31:32;5.60;99.90
22202;DHT22;11266;51.522;6.302;2023-03-01T17:32:18;5.60;99.90
22202;DHT22;11266;51.522;6.302;2023-03-01T17:33:04;5.60;99.90
22202;DHT22;11266;51.522;6.302;2023-03-01T17:33:50;5.60;99.90
22202;DHT22;11266;51.522;6.302;2023-03-01T17:34:38;5.50;99.90
22202;DHT22;11266;51.522;6.302;2023-03-01T17:35:24;5.50;99.90
22202;DHT22;11266;51.522;6.302;2023-03-01T17:36:10;5.40;99.90
22202;DHT22;11266;51.522;6.302;2023-03-01T17:36:55;5.40;99.90
22202;DHT22;11266;51.522;6.302;2023-03-01T17:37:41;5.40;99.90
22202;DHT22;11266;51.522;6.302;2023-03-01T17:38:30;5.40;99.90
22202;DHT22;11266;51.522;6.302;2023-03-01T17:39:17;5.40;99.90
22202;DHT22;11266;51.522;6.302;2023-03-01T17:40:05;5.30;99.90
22202;DHT22;11266;51.522;6.302;2023-03-01T17:40:52;5.30;99.90
22202;DHT22;11266;51.522;6.302;2023-03-01T17:41:37;5.30;99.90
22202;DHT22;11266;51.522;6.302;2023-03-01T17:42:23;5.30;99.90
22202;DHT22;11266;51.522;6.302;2023-03-01T17:43:09;5.20;99.90
22202;DHT22;11266;51.522;6.302;2023-03-01T17:43:54;5.20;99.90
22202;DHT22;11266;51.522;6.302;2023-03-01T17:44:40;5.20;99.90
22202;DHT22;11266;51.522;6.302;2023-03-01T17:45:25;5.20;99.90
22202;DHT22;11266;51.522;6.302;2023-03-01T17:46:13;5.20;99.90
22202;DHT22;11266;51.522;6.302;2023-03-01T17:47:00;5.10;99.90
22202;DHT22;11266;51.522;6.302;2023-03-01T17:47:45;5.10;99.90
22202;DHT22;11266;51.522;6.302;2023-03-01T17:48:31;5.10;99.90
22202;DHT22;11266;51.522;6.302;2023-03-01T17:49:16;5.10;99.90
22202;DHT22;11266;51.522;6.302;2023-03-01T17:50:05;5.00;99.90
22202;DHT22;11266;51.522;6.302;2023-03-01T17:50:52;5.00;99.90
22202;DHT22;11266;51.522;6.302;2023-03-01T17:51:38;5.00;99.90
22202;DHT22;11266;51.522;6.302;2023-03-01T17:52:24;4.90;99.90
22202;DHT22;11266;51.522;6.302;2023-03-01T17:53:09;4.90;99.90
22202;DHT22;11266;51.522;6.302;2023-03-01T17:53:58;4.90;99.90
22202;DHT22;11266;51.522;6.302;2023-03-01T17:54:43;4.90;99.90
22202;DHT22;11266;51.522;6.302;2023-03-01T17:55:29;4.90;99.90
22202;DHT22;11266;51.522;6.302;2023-03-01T17:56:15;4.90;99.90
22202;DHT22;11266;51.522;6.302;2023-03-01T17:57:00;4.90;99.90
22202;DHT22;11266;51.522;6.302;2023-03-01T17:57:46;4.90;99.90
22202;DHT22;11266;51.522;6.302;2023-03-01T17:58:32;4.90;99.90
22202;DHT22;11266;51.522;6.302;2023-03-01T17:59:17;4.90;99.90
22202;DHT22;11266;51.522;6.302;2023-03-01T18:00:04;4.80;99.90
22202;DHT22;11266;51.522;6.302;2023-03-01T18:00:50;4.80;99.90
22202;DHT22;11266;51.522;6.302;2023-03-01T18:01:36;4.80;99.90
22202;DHT22;11266;51.522;6.302;2023-03-01T18:02:22;4.80;99.90
22202;DHT22;11266;51.522;6.302;2023-03-01T18:03:07;4.80;99.90
22202;DHT22;11266;51.522;6.302;2023-03-01T18:03:53;4.70;99.90
22202;DHT22;11266;51.522;6.302;2023-03-01T18:04:39;4.70;99.90
22202;DHT22;11266;51.522;6.302;2023-03-01T18:05:25;4.70;99.90
22202;DHT22;11266;51.522;6.302;2023-03-01T18:06:15;4.70;99.90
22202;DHT22;11266;51.522;6.302;2023-03-01T18:07:01;4.60;99.90
22202;DHT22;11266;51.522;6.302;2023-03-01T18:07:46;4.60;99.90
22202;DHT22;11266;51.522;6.302;2023-03-01T18:08:32;4.60;99.90
22202;DHT22;11266;51.522;6.302;2023-03-01T18:09:18;4.60;99.90
22202;DHT22;11266;51.522;6.302;2023-03-01T18:10:06;4.60;99.90
22202;DHT22;11266;51.522;6.302;2023-03-01T18:10:58;4.50;99.90
22202;DHT22;11266;51.522;6.302;2023-03-01T18:11:44;4.50;99.90
22202;DHT22;11266;51.522;6.302;2023-03-01T18:12:30;4.50;99.90
22202;DHT22;11266;51.522;6.302;2023-03-01T18:13:16;4.40;99.90
22202;DHT22;11266;51.522;6.302;2023-03-01T18:14:03;4.40;99.90
22202;DHT22;11266;51.522;6.302;2023-03-01T18:14:49;4.40;99.90
22202;DHT22;11266;51.522;6.302;2023-03-01T18:15:37;4.40;99.90
22202;DHT22;11266;51.522;6.302;2023-03-01T18:16:23;4.40;99.90
22202;DHT22;11266;51.522;6.302;2023-03-01T18:17:09;4.30;99.90
22202;DHT22;11266;51.522;6.302;2023-03-01T18:17:56;4.30;99.90
22202;DHT22;11266;51.522;6.302;2023-03-01T18:18:41;4.30;99.90
22202;DHT22;11266;51.522;6.302;2023-03-01T18:19:27;4.30;99.90
22202;DHT22;11266;51.522;6.302;2023-03-01T18:20:13;4.30;99.90
22202;DHT22;11266;51.522;6.302;2023-03-01T18:21:00;4.30;99.90
22202;DHT22;11266;51.522;6.302;2023-03-01T18:21:46;4.30;99.90
22202;DHT22;11266;51.522;6.302;2023-03-01T18:22:33;4.30;99.90
22202;DHT22;11266;51.522;6.302;2023-03-01T18:23:19;4.30;99.90
22202;DHT22;11266;51.522;6.302;2023-03-01T18:24:05;4.30;99.90
22202;DHT22;11266;51.522;6.302;2023-03-01T18:24:51;4.20;99.90
22202;DHT22;11266;51.522;6.302;2023-03-01T18:25:38;4.20;99.90
22202;DHT22;11266;51.522;6.302;2023-03-01T18:26:24;4.20;99.90
22202;DHT22;11266;51.522;6.302;2023-03-01T18:27:11;4.10;99.90
22202;DHT22;11266;51.522;6.302;2023-03-01T18:27:57;4.10;99.90
22202;DHT22;11266;51.522;6.302;2023-03-01T18:28:43;4.10;99.90
22202;DHT22;11266;51.522;6.302;2023-03-01T18:29:32;4.10;99.90
22202;DHT22;11266;51.522;6.302;2023-03-01T18:30:17;4.10;99.90
22202;DHT22;11266;51.522;6.302;2023-03-01T18:31:08;4.10;99.90
22202;DHT22;11266;51.522;6.302;2023-03-01T18:31:55;4.10;99.90
22202;DHT22;11266;51.522;6.302;2023-03-01T18:32:41;4.10;99.90
22202;DHT22;11266;51.522;6.302;2023-03-01T18:33:30;4.00;99.90
22202;DHT22;11266;51.522;6.302;2023-03-01T18:34:16;4.10;99.90
22202;DHT22;11266;51.522;6.302;2023-03-01T18:35:02;4.00;99.90
22202;DHT22;11266;51.522;6.302;2023-03-01T18:35:47;4.00;99.90
22202;DHT22;11266;51.522;6.302;2023-03-01T18:36:34;4.00;99.90
22202;DHT22;11266;51.522;6.302;2023-03-01T18:37:20;4.00;99.90
22202;DHT22;11266;51.522;6.302;2023-03-01T18:38:06;4.00;99.90
22202;DHT22;11266;51.522;6.302;2023-03-01T18:38:52;3.90;99.90
22202;DHT22;11266;51.522;6.302;2023-03-01T18:39:42;3.90;99.90
22202;DHT22;11266;51.522;6.302;2023-03-01T18:40:29;3.90;99.90
22202;DHT22;11266;51.522;6.302;2023-03-01T18:41:16;3.90;99.90
22202;DHT22;11266;51.522;6.302;2023-03-01T18:42:01;3.90;99.90
22202;DHT22;11266;51.522;6.302;2023-03-01T18:42:48;3.80;99.90
22202;DHT22;11266;51.522;6.302;2023-03-01T18:43:33;3.80;99.90
22202;DHT22;11266;51.522;6.302;2023-03-01T18:44:19;3.80;99.90
22202;DHT22;11266;51.522;6.302;2023-03-01T18:45:05;3.80;99.90
22202;DHT22;11266;51.522;6.302;2023-03-01T18:45:57;3.80;99.90
22202;DHT22;11266;51.522;6.302;2023-03-01T18:46:43;3.80;99.90
22202;DHT22;11266;51.522;6.302;2023-03-01T18:47:30;3.70;99.90
22202;DHT22;11266;51.522;6.302;2023-03-01T18:48:16;3.70;99.90
22202;DHT22;11266;51.522;6.302;2023-03-01T18:49:01;3.70;99.90
22202;DHT22;11266;51.522;6.302;2023-03-01T18:49:47;3.70;99.90
22202;DHT22;11266;51.522;6.302;2023-03-01T18:50:33;3.70;99.90
22202;DHT22;11266;51.522;6.302;2023-03-01T18:51:21;3.60;99.90
22202;DHT22;11266;51.522;6.302;2023-03-01T18:52:07;3.60;99.90
22202;DHT22;11266;51.522;6.302;2023-03-01T18:52:53;3.60;99.90
22202;DHT22;11266;51.522;6.302;2023-03-01T18:53:38;3.60;99.90
22202;DHT22;11266;51.522;6.302;2023-03-01T18:54:24;3.60;99.90
22202;DHT22;11266;51.522;6.302;2023-03-01T18:55:10;3.60;99.90
22202;DHT22;11266;51.522;6.302;2023-03-01T18:55:58;3.50;99.90
22202;DHT22;11266;51.522;6.302;2023-03-01T18:56:45;3.50;99.90
22202;DHT22;11266;51.522;6.302;2023-03-01T18:57:31;3.50;99.90
22202;DHT22;11266;51.522;6.302;2023-03-01T18:58:16;3.50;99.90
22202;DHT22;11266;51.522;6.302;2023-03-01T18:59:02;3.50;99.90
22202;DHT22;11266;51.522;6.302;2023-03-01T18:59:49;3.50;99.90
22202;DHT22;11266;51.522;6.302;2023-03-01T19:00:34;3.50;99.90
22202;DHT22;11266;51.522;6.302;2023-03-01T19:01:22;3.50;99.90
22202;DHT22;11266;51.522;6.302;2023-03-01T19:02:10;3.50;99.90
22202;DHT22;11266;51.522;6.302;2023-03-01T19:02:56;3.50;99.90
22202;DHT22;11266;51.522;6.302;2023-03-01T19:03:42;3.40;99.90
22202;DHT22;11266;51.522;6.302;2023-03-01T19:04:28;3.40;99.90
22202;DHT22;11266;51.522;6.302;2023-03-01T19:05:14;3.40;99.90
22202;DHT22;11266;51.522;6.302;2023-03-01T19:06:02;3.40;99.90
22202;DHT22;11266;51.522;6.302;2023-03-01T19:06:49;3.40;99.90
22202;DHT22;11266;51.522;6.302;2023-03-01T19:07:35;3.40;99.90
22202;DHT22;11266;51.522;6.302;2023-03-01T19:08:20;3.40;99.90
22202;DHT22;11266;51.522;6.302;2023-03-01T19:09:07;3.40;99.90
22202;DHT22;11266;51.522;6.302;2023-03-01T19:09:53;3.30;99.90
22202;DHT22;11266;51.522;6.302;2023-03-01T19:10:39;3.30;99.90
22202;DHT22;11266;51.522;6.302;2023-03-01T19:11:24;3.30;99.90
22202;DHT22;11266;51.522;6.302;2023-03-01T19:12:11;3.30;99.90
22202;DHT22;11266;51.522;6.302;2023-03-01T19:12:57;3.30;99.90
22202;DHT22;11266;51.522;6.302;2023-03-01T19:13:44;3.20;99.90
22202;DHT22;11266;51.522;6.302;2023-03-01T19:14:29;3.30;99.90
22202;DHT22;11266;51.522;6.302;2023-03-01T19:15:15;3.30;99.90
22202;DHT22;11266;51.522;6.302;2023-03-01T19:16:51;3.20;99.90
22202;DHT22;11266;51.522;6.302;2023-03-01T19:17:36;3.20;99.90
22202;DHT22;11266;51.522;6.302;2023-03-01T19:18:22;3.20;99.90
22202;DHT22;11266;51.522;6.302;2023-03-01T19:19:08;3.10;99.90
22202;DHT22;11266;51.522;6.302;2023-03-01T19:19:57;3.10;99.90
22202;DHT22;11266;51.522;6.302;2023-03-01T19:20:42;3.10;99.90
22202;DHT22;11266;51.522;6.302;2023-03-01T19:21:29;3.10;99.90
22202;DHT22;11266;51.522;6.302;2023-03-01T19:22:15;3.10;99.90
22202;DHT22;11266;51.522;6.302;2023-03-01T19:23:01;3.10;99.90
22202;DHT22;11266;51.522;6.302;2023-03-01T19:23:47;3.10;99.90
22202;DHT22;11266;51.522;6.302;2023-03-01T19:24:36;3.10;99.90
22202;DHT22;11266;51.522;6.302;2023-03-01T19:25:21;3.10;99.90
22202;DHT22;11266;51.522;6.302;2023-03-01T19:26:10;3.10;99.90
22202;DHT22;11266;51.522;6.302;2023-03-01T19:26:56;3.00;99.90
22202;DHT22;11266;51.522;6.302;2023-03-01T19:27:42;3.10;99.90
22202;DHT22;11266;51.522;6.302;2023-03-01T19:28:28;3.00;99.90
22202;DHT22;11266;51.522;6.302;2023-03-01T19:29:14;3.00;99.90
22202;DHT22;11266;51.522;6.302;2023-03-01T19:30:02;3.00;99.90
22202;DHT22;11266;51.522;6.302;2023-03-01T19:30:48;3.00;99.90
22202;DHT22;11266;51.522;6.302;2023-03-01T19:31:33;3.00;99.90
22202;DHT22;11266;51.522;6.302;2023-03-01T19:32:19;3.00;99.90
22202;DHT22;11266;51.522;6.302;2023-03-01T19:33:04;3.00;99.90
22202;DHT22;11266;51.522;6.302;2023-03-01T19:33:51;2.90;99.90
22202;DHT22;11266;51.522;6.302;2023-03-01T19:34:37;2.90;99.90
22202;DHT22;11266;51.522;6.302;2023-03-01T19:35:24;2.90;99.90
22202;DHT22;11266;51.522;6.302;2023-03-01T19:36:12;2.90;99.90
22202;DHT22;11266;51.522;6.302;2023-03-01T19:36:58;2.90;99.90
22202;DHT22;11266;51.522;6.302;2023-03-01T19:37:43;2.90;99.90
22202;DHT22;11266;51.522;6.302;2023-03-01T19:38:29;2.90;99.90
22202;DHT22;11266;51.522;6.302;2023-03-01T19:39:15;2.90;99.90
22202;DHT22;11266;51.522;6.302;2023-03-01T19:40:01;2.90;99.90
22202;DHT22;11266;51.522;6.302;2023-03-01T19:40:47;2.90;99.90
22202;DHT22;11266;51.522;6.302;2023-03-01T19:41:33;2.90;99.90
22202;DHT22;11266;51.522;6.302;2023-03-01T19:42:18;2.90;99.90
22202;DHT22;11266;51.522;6.302;2023-03-01T19:43:04;2.90;99.90
22202;DHT22;11266;51.522;6.302;2023-03-01T19:43:50;2.90;99.90
22202;DHT22;11266;51.522;6.302;2023-03-01T19:44:35;2.90;99.90
22202;DHT22;11266;51.522;6.302;2023-03-01T19:45:22;2.90;99.90
22202;DHT22;11266;51.522;6.302;2023-03-01T19:46:09;2.90;99.90
22202;DHT22;11266;51.522;6.302;2023-03-01T19:46:56;2.90;99.90
22202;DHT22;11266;51.522;6.302;2023-03-01T19:47:48;2.90;99.90
22202;DHT22;11266;51.522;6.302;2023-03-01T19:48:37;2.90;99.90
22202;DHT22;11266;51.522;6.302;2023-03-01T19:49:26;2.90;99.90
22202;DHT22;11266;51.522;6.302;2023-03-01T19:50:14;2.90;99.90
22202;DHT22;11266;51.522;6.302;2023-03-01T19:50:59;2.90;99.90
22202;DHT22;11266;51.522;6.302;2023-03-01T19:51:45;2.90;99.90
22202;DHT22;11266;51.522;6.302;2023-03-01T19:52:31;2.90;99.90
22202;DHT22;11266;51.522;6.302;2023-03-01T19:53:18;2.90;99.90
22202;DHT22;11266;51.522;6.302;2023-03-01T19:54:04;2.90;99.90
22202;DHT22;11266;51.522;6.302;2023-03-01T19:54:50;2.90;99.90
22202;DHT22;11266;51.522;6.302;2023-03-01T19:55:36;2.90;99.90
22202;DHT22;11266;51.522;6.302;2023-03-01T19:56:22;2.90;99.90
22202;DHT22;11266;51.522;6.302;2023-03-01T19:57:08;2.90;99.90
22202;DHT22;11266;51.522;6.302;2023-03-01T19:57:54;2.90;99.90
22202;DHT22;11266;51.522;6.302;2023-03-01T19:58:39;2.90;99.90
22202;DHT22;11266;51.522;6.302;2023-03-01T19:59:25;2.90;99.90
22202;DHT22;11266;51.522;6.302;2023-03-01T20:00:13;2.90;99.90
22202;DHT22;11266;51.522;6.302;2023-03-01T20:00:59;2.90;99.90
22202;DHT22;11266;51.522;6.302;2023-03-01T20:01:45;2.80;99.90
22202;DHT22;11266;51.522;6.302;2023-03-01T20:02:31;2.80;99.90
22202;DHT22;11266;51.522;6.302;2023-03-01T20:03:16;2.80;99.90
22202;DHT22;11266;51.522;6.302;2023-03-01T20:04:03;2.80;99.90
22202;DHT22;11266;51.522;6.302;2023-03-01T20:04:48;2.80;99.90
22202;DHT22;11266;51.522;6.302;2023-03-01T20:05:35;2.80;99.90
22202;DHT22;11266;51.522;6.302;2023-03-01T20:06:21;2.80;99.90
22202;DHT22;11266;51.522;6.302;2023-03-01T20:07:07;2.80;99.90
22202;DHT22;11266;51.522;6.302;2023-03-01T20:07:55;2.80;99.90
22202;DHT22;11266;51.522;6.302;2023-03-01T20:08:43;2.90;99.90
22202;DHT22;11266;51.522;6.302;2023-03-01T20:09:29;2.80;99.90
22202;DHT22;11266;51.522;6.302;2023-03-01T20:10:14;2.80;99.90
22202;DHT22;11266;51.522;6.302;2023-03-01T20:11:02;2.80;99.90
22202;DHT22;11266;51.522;6.302;2023-03-01T20:11:48;2.80;99.90
22202;DHT22;11266;51.522;6.302;2023-03-01T20:12:36;2.80;99.90
22202;DHT22;11266;51.522;6.302;2023-03-01T20:13:21;2.70;99.90
22202;DHT22;11266;51.522;6.302;2023-03-01T20:14:08;2.70;99.90
22202;DHT22;11266;51.522;6.302;2023-03-01T20:14:56;2.70;99.90
22202;DHT22;11266;51.522;6.302;2023-03-01T20:15:43;2.70;99.90
22202;DHT22;11266;51.522;6.302;2023-03-01T20:16:28;2.70;99.90
22202;DHT22;11266;51.522;6.302;2023-03-01T20:17:14;2.70;99.90
22202;DHT22;11266;51.522;6.302;2023-03-01T20:18:00;2.70;99.90
22202;DHT22;11266;51.522;6.302;2023-03-01T20:18:48;2.70;99.90
22202;DHT22;11266;51.522;6.302;2023-03-01T20:19:34;2.70;99.90
22202;DHT22;11266;51.522;6.302;2023-03-01T20:20:20;2.70;99.90
22202;DHT22;11266;51.522;6.302;2023-03-01T20:21:08;2.70;99.90
22202;DHT22;11266;51.522;6.302;2023-03-01T20:21:53;2.70;99.90
22202;DHT22;11266;51.522;6.302;2023-03-01T20:22:40;2.70;99.90
22202;DHT22;11266;51.522;6.302;2023-03-01T20:23:26;2.70;99.90
22202;DHT22;11266;51.522;6.302;2023-03-01T20:24:14;2.60;99.90
22202;DHT22;11266;51.522;6.302;2023-03-01T20:25:00;2.60;99.90
22202;DHT22;11266;51.522;6.302;2023-03-01T20:25:46;2.60;99.90
22202;DHT22;11266;51.522;6.302;2023-03-01T20:26:35;2.60;99.90
22202;DHT22;11266;51.522;6.302;2023-03-01T20:27:21;2.60;99.90
22202;DHT22;11266;51.522;6.302;2023-03-01T20:28:06;2.60;99.90
22202;DHT22;11266;51.522;6.302;2023-03-01T20:28:54;2.60;99.90
22202;DHT22;11266;51.522;6.302;2023-03-01T20:29:41;2.50;99.90
22202;DHT22;11266;51.522;6.302;2023-03-01T20:30:26;2.50;99.90
22202;DHT22;11266;51.522;6.302;2023-03-01T20:31:14;2.50;99.90
22202;DHT22;11266;51.522;6.302;2023-03-01T20:32:00;2.50;99.90
22202;DHT22;11266;51.522;6.302;2023-03-01T20:32:45;2.40;99.90
22202;DHT22;11266;51.522;6.302;2023-03-01T20:33:31;2.40;99.90
22202;DHT22;11266;51.522;6.302;2023-03-01T20:34:17;2.40;99.90
22202;DHT22;11266;51.522;6.302;2023-03-01T20:35:03;2.40;99.90
22202;DHT22;11266;51.522;6.302;2023-03-01T20:35:49;2.40;99.90
22202;DHT22;11266;51.522;6.302;2023-03-01T20:36:35;2.40;99.90
22202;DHT22;11266;51.522;6.302;2023-03-01T20:37:22;2.40;99.90
22202;DHT22;11266;51.522;6.302;2023-03-01T20:38:08;2.40;99.90
22202;DHT22;11266;51.522;6.302;2023-03-01T20:38:54;2.40;99.90
22202;DHT22;11266;51.522;6.302;2023-03-01T20:39:40;2.40;99.90
22202;DHT22;11266;51.522;6.302;2023-03-01T20:40:26;2.40;99.90
22202;DHT22;11266;51.522;6.302;2023-03-01T20:41:14;2.40;99.90